sensor_id;sensor_type;location;lat;lon;timestamp;temperature;humidity
13808;DHT22;40769;51.512;5.494;2023-02-26T00:01:32;2.70;99.90
13808;DHT22;40769;51.512;5.494;2023-02-26T00:04:01;2.60;99.90
13808;DHT22;40769;51.512;5.494;2023-02-26T00:06:28;2.70;99.90
13808;DHT22;40769;51.512;5.494;2023-02-26T00:08:54;4.00;99.90
13808;DHT22;40769;51.512;5.494;2023-02-26T00:11:20;2.90;99.90
13808;DHT22;40769;51.512;5.494;2023-02-26T00:13:47;3.00;99.90
13808;DHT22;40769;51.512;5.494;2023-02-26T00:16:26;2.90;99.90
13808;DHT22;40769;51.512;5.494;2023-02-26T00:18:52;2.90;99.90
13808;DHT22;40769;51.512;5.494;2023-02-26T00:21:22;2.80;99.90
13808;DHT22;40769;51.512;5.494;2023-02-26T00:23:48;2.70;99.90
13808;DHT22;40769;51.512;5.494;2023-02-26T00:26:15;2.70;99.90
13808;DHT22;40769;51.512;5.494;2023-02-26T00:28:41;3.60;99.90
13808;DHT22;40769;51.512;5.494;2023-02-26T00:31:07;2.70;99.90
13808;DHT22;40769;51.512;5.494;2023-02-26T00:33:33;2.70;99.90
13808;DHT22;40769;51.512;5.494;2023-02-26T00:36:37;2.70;99.90
13808;DHT22;40769;51.512;5.494;2023-02-26T00:41:54;2.90;99.90
13808;DHT22;40769;51.512;5.494;2023-02-26T00:44:20;3.00;99.90
13808;DHT22;40769;51.512;5.494;2023-02-26T00:50:04;3.30;99.90
13808;DHT22;40769;51.512;5.494;2023-02-26T00:55:01;3.50;99.90
13808;DHT22;40769;51.512;5.494;2023-02-26T00:57:27;3.60;99.90
13808;DHT22;40769;51.512;5.494;2023-02-26T00:59:52;3.70;99.90
13808;DHT22;40769;51.512;5.494;2023-02-26T01:02:18;3.90;99.90
13808;DHT22;40769;51.512;5.494;2023-02-26T01:04:44;3.90;99.90
13808;DHT22;40769;51.512;5.494;2023-02-26T01:07:11;4.00;99.90
13808;DHT22;40769;51.512;5.494;2023-02-26T01:09:37;4.10;99.90
13808;DHT22;40769;51.512;5.494;2023-02-26T01:12:07;4.00;99.90
13808;DHT22;40769;51.512;5.494;2023-02-26T01:14:33;4.00;99.90
13808;DHT22;40769;51.512;5.494;2023-02-26T01:19:52;3.70;99.90
13808;DHT22;40769;51.512;5.494;2023-02-26T01:22:34;3.60;99.90
13808;DHT22;40769;51.512;5.494;2023-02-26T01:25:05;3.50;99.90
13808;DHT22;40769;51.512;5.494;2023-02-26T01:27:31;3.40;99.90
13808;DHT22;40769;51.512;5.494;2023-02-26T01:29:57;3.20;99.90
13808;DHT22;40769;51.512;5.494;2023-02-26T01:32:37;3.10;99.90
13808;DHT22;40769;51.512;5.494;2023-02-26T01:35:17;2.90;99.90
13808;DHT22;40769;51.512;5.494;2023-02-26T01:38:00;3.60;99.90
13808;DHT22;40769;51.512;5.494;2023-02-26T01:46:41;2.50;99.90
13808;DHT22;40769;51.512;5.494;2023-02-26T01:49:15;2.50;99.90
13808;DHT22;40769;51.512;5.494;2023-02-26T01:51:46;2.40;99.90
13808;DHT22;40769;51.512;5.494;2023-02-26T01:54:14;2.40;99.90
13808;DHT22;40769;51.512;5.494;2023-02-26T01:56:40;2.60;99.90
13808;DHT22;40769;51.512;5.494;2023-02-26T01:59:08;2.80;99.90
13808;DHT22;40769;51.512;5.494;2023-02-26T02:01:36;2.90;99.90
13808;DHT22;40769;51.512;5.494;2023-02-26T02:04:04;2.90;99.90
13808;DHT22;40769;51.512;5.494;2023-02-26T02:06:31;2.90;99.90
13808;DHT22;40769;51.512;5.494;2023-02-26T02:08:57;2.80;99.90
13808;DHT22;40769;51.512;5.494;2023-02-26T02:11:23;2.70;99.90
13808;DHT22;40769;51.512;5.494;2023-02-26T02:14:23;3.70;99.90
13808;DHT22;40769;51.512;5.494;2023-02-26T02:17:11;2.70;99.90
13808;DHT22;40769;51.512;5.494;2023-02-26T02:19:58;2.70;99.90
13808;DHT22;40769;51.512;5.494;2023-02-26T02:33:51;2.80;99.90
13808;DHT22;40769;51.512;5.494;2023-02-26T02:36:38;2.80;99.90
13808;DHT22;40769;51.512;5.494;2023-02-26T02:39:10;2.90;99.90
13808;DHT22;40769;51.512;5.494;2023-02-26T02:41:41;3.20;99.90
13808;DHT22;40769;51.512;5.494;2023-02-26T02:44:13;3.10;99.90
13808;DHT22;40769;51.512;5.494;2023-02-26T02:46:43;3.20;99.90
13808;DHT22;40769;51.512;5.494;2023-02-26T02:49:30;3.40;99.90
13808;DHT22;40769;51.512;5.494;2023-02-26T02:52:09;3.50;99.90
13808;DHT22;40769;51.512;5.494;2023-02-26T02:57:18;3.80;99.90
13808;DHT22;40769;51.512;5.494;2023-02-26T02:59:48;4.00;99.90
13808;DHT22;40769;51.512;5.494;2023-02-26T03:04:53;4.10;99.90
13808;DHT22;40769;51.512;5.494;2023-02-26T03:07:19;4.10;99.90
13808;DHT22;40769;51.512;5.494;2023-02-26T03:09:45;4.00;99.90
13808;DHT22;40769;51.512;5.494;2023-02-26T03:12:11;4.00;99.90
13808;DHT22;40769;51.512;5.494;2023-02-26T03:14:37;3.90;99.90
13808;DHT22;40769;51.512;5.494;2023-02-26T03:20:08;3.80;99.90
13808;DHT22;40769;51.512;5.494;2023-02-26T03:22:42;3.70;99.90
13808;DHT22;40769;51.512;5.494;2023-02-26T03:36:03;4.40;99.90
13808;DHT22;40769;51.512;5.494;2023-02-26T03:38:41;3.70;99.90
13808;DHT22;40769;51.512;5.494;2023-02-26T03:41:11;4.50;99.90
13808;DHT22;40769;51.512;5.494;2023-02-26T03:43:44;3.60;99.90
13808;DHT22;40769;51.512;5.494;2023-02-26T03:46:18;3.50;99.90
13808;DHT22;40769;51.512;5.494;2023-02-26T03:48:48;3.50;99.90
13808;DHT22;40769;51.512;5.494;2023-02-26T03:51:16;4.20;99.90
13808;DHT22;40769;51.512;5.494;2023-02-26T03:54:14;4.20;99.90
13808;DHT22;40769;51.512;5.494;2023-02-26T03:56:44;3.30;99.90
13808;DHT22;40769;51.512;5.494;2023-02-26T03:59:12;3.40;99.90
13808;DHT22;40769;51.512;5.494;2023-02-26T04:01:42;3.50;99.90
13808;DHT22;40769;51.512;5.494;2023-02-26T04:04:16;3.60;99.90
13808;DHT22;40769;51.512;5.494;2023-02-26T04:06:43;4.00;99.90
13808;DHT22;40769;51.512;5.494;2023-02-26T04:09:10;3.70;99.90
13808;DHT22;40769;51.512;5.494;2023-02-26T04:11:36;3.80;99.90
13808;DHT22;40769;51.512;5.494;2023-02-26T04:14:03;3.90;99.90
13808;DHT22;40769;51.512;5.494;2023-02-26T04:16:28;3.80;99.90
13808;DHT22;40769;51.512;5.494;2023-02-26T04:18:54;3.70;99.90
13808;DHT22;40769;51.512;5.494;2023-02-26T04:21:21;3.60;99.90
13808;DHT22;40769;51.512;5.494;2023-02-26T04:23:47;3.60;99.90
13808;DHT22;40769;51.512;5.494;2023-02-26T04:26:12;3.50;99.90
13808;DHT22;40769;51.512;5.494;2023-02-26T04:28:39;3.70;99.90
13808;DHT22;40769;51.512;5.494;2023-02-26T04:31:05;3.30;99.90
13808;DHT22;40769;51.512;5.494;2023-02-26T04:33:32;3.30;99.90
13808;DHT22;40769;51.512;5.494;2023-02-26T04:35:58;3.20;99.90
13808;DHT22;40769;51.512;5.494;2023-02-26T04:38:25;3.20;99.90
13808;DHT22;40769;51.512;5.494;2023-02-26T04:40:51;3.10;99.90
13808;DHT22;40769;51.512;5.494;2023-02-26T04:43:17;3.10;99.90
13808;DHT22;40769;51.512;5.494;2023-02-26T04:45:47;3.10;99.90
13808;DHT22;40769;51.512;5.494;2023-02-26T04:48:16;3.10;99.90
13808;DHT22;40769;51.512;5.494;2023-02-26T04:50:42;3.00;99.90
13808;DHT22;40769;51.512;5.494;2023-02-26T04:53:08;3.00;99.90
13808;DHT22;40769;51.512;5.494;2023-02-26T04:55:35;3.80;99.90
13808;DHT22;40769;51.512;5.494;2023-02-26T04:58:01;2.90;99.90
13808;DHT22;40769;51.512;5.494;2023-02-26T05:00:27;3.00;99.90
13808;DHT22;40769;51.512;5.494;2023-02-26T05:02:52;3.50;99.90
13808;DHT22;40769;51.512;5.494;2023-02-26T05:05:18;3.00;99.90
13808;DHT22;40769;51.512;5.494;2023-02-26T05:07:44;3.10;99.90
13808;DHT22;40769;51.512;5.494;2023-02-26T05:10:10;2.30;99.90
13808;DHT22;40769;51.512;5.494;2023-02-26T05:12:36;3.00;99.90
13808;DHT22;40769;51.512;5.494;2023-02-26T05:15:03;3.00;99.90
13808;DHT22;40769;51.512;5.494;2023-02-26T05:17:29;3.00;99.90
13808;DHT22;40769;51.512;5.494;2023-02-26T05:19:55;3.00;99.90
13808;DHT22;40769;51.512;5.494;2023-02-26T05:22:20;3.10;99.90
13808;DHT22;40769;51.512;5.494;2023-02-26T05:24:46;3.00;99.90
13808;DHT22;40769;51.512;5.494;2023-02-26T05:27:12;3.10;99.90
13808;DHT22;40769;51.512;5.494;2023-02-26T05:29:38;3.10;99.90
13808;DHT22;40769;51.512;5.494;2023-02-26T05:32:06;3.20;99.90
13808;DHT22;40769;51.512;5.494;2023-02-26T05:34:32;3.20;99.90
13808;DHT22;40769;51.512;5.494;2023-02-26T05:36:57;3.20;99.90
13808;DHT22;40769;51.512;5.494;2023-02-26T05:39:23;3.20;99.90
13808;DHT22;40769;51.512;5.494;2023-02-26T05:41:49;3.10;99.90
13808;DHT22;40769;51.512;5.494;2023-02-26T05:44:16;3.00;99.90
13808;DHT22;40769;51.512;5.494;2023-02-26T05:46:41;2.90;99.90
13808;DHT22;40769;51.512;5.494;2023-02-26T05:49:07;3.40;99.90
13808;DHT22;40769;51.512;5.494;2023-02-26T05:51:33;2.90;99.90
13808;DHT22;40769;51.512;5.494;2023-02-26T05:53:59;3.20;99.90
13808;DHT22;40769;51.512;5.494;2023-02-26T05:56:24;2.80;99.90
13808;DHT22;40769;51.512;5.494;2023-02-26T05:58:50;2.80;99.90
13808;DHT22;40769;51.512;5.494;2023-02-26T06:01:16;2.70;99.90
13808;DHT22;40769;51.512;5.494;2023-02-26T06:03:41;3.90;99.90
13808;DHT22;40769;51.512;5.494;2023-02-26T06:06:10;2.70;99.90
13808;DHT22;40769;51.512;5.494;2023-02-26T06:08:36;3.40;99.90
13808;DHT22;40769;51.512;5.494;2023-02-26T06:11:03;2.70;99.90
13808;DHT22;40769;51.512;5.494;2023-02-26T06:13:29;2.70;99.90
13808;DHT22;40769;51.512;5.494;2023-02-26T06:15:54;2.90;99.90
13808;DHT22;40769;51.512;5.494;2023-02-26T06:18:20;2.70;99.90
13808;DHT22;40769;51.512;5.494;2023-02-26T06:20:46;2.70;99.90
13808;DHT22;40769;51.512;5.494;2023-02-26T06:23:12;2.70;99.90
13808;DHT22;40769;51.512;5.494;2023-02-26T06:25:40;3.00;99.90
13808;DHT22;40769;51.512;5.494;2023-02-26T06:28:06;2.70;99.90
13808;DHT22;40769;51.512;5.494;2023-02-26T06:30:31;2.70;99.90
13808;DHT22;40769;51.512;5.494;2023-02-26T06:32:57;2.70;99.90
13808;DHT22;40769;51.512;5.494;2023-02-26T06:35:23;3.80;99.90
13808;DHT22;40769;51.512;5.494;2023-02-26T06:37:49;2.70;99.90
13808;DHT22;40769;51.512;5.494;2023-02-26T06:40:14;2.80;99.90
13808;DHT22;40769;51.512;5.494;2023-02-26T06:42:40;2.70;99.90
13808;DHT22;40769;51.512;5.494;2023-02-26T06:45:06;3.90;99.90
13808;DHT22;40769;51.512;5.494;2023-02-26T06:47:32;2.80;99.90
13808;DHT22;40769;51.512;5.494;2023-02-26T06:49:57;2.90;99.90
13808;DHT22;40769;51.512;5.494;2023-02-26T06:52:23;2.90;99.90
13808;DHT22;40769;51.512;5.494;2023-02-26T06:54:49;2.90;99.90
13808;DHT22;40769;51.512;5.494;2023-02-26T06:57:14;3.00;99.90
13808;DHT22;40769;51.512;5.494;2023-02-26T06:59:40;3.00;99.90
13808;DHT22;40769;51.512;5.494;2023-02-26T07:02:05;3.10;99.90
13808;DHT22;40769;51.512;5.494;2023-02-26T07:04:31;3.20;99.90
13808;DHT22;40769;51.512;5.494;2023-02-26T07:06:57;3.30;99.90
13808;DHT22;40769;51.512;5.494;2023-02-26T07:09:25;3.40;99.90
13808;DHT22;40769;51.512;5.494;2023-02-26T07:11:51;3.30;99.90
13808;DHT22;40769;51.512;5.494;2023-02-26T07:14:16;3.30;99.90
13808;DHT22;40769;51.512;5.494;2023-02-26T07:16:42;3.30;99.90
13808;DHT22;40769;51.512;5.494;2023-02-26T07:19:07;3.30;99.90
13808;DHT22;40769;51.512;5.494;2023-02-26T07:21:33;4.30;99.90
13808;DHT22;40769;51.512;5.494;2023-02-26T07:23:59;3.30;99.90
13808;DHT22;40769;51.512;5.494;2023-02-26T07:26:24;3.30;99.90
13808;DHT22;40769;51.512;5.494;2023-02-26T07:28:50;3.40;99.90
13808;DHT22;40769;51.512;5.494;2023-02-26T07:31:16;3.60;99.90
13808;DHT22;40769;51.512;5.494;2023-02-26T07:33:41;3.70;99.90
13808;DHT22;40769;51.512;5.494;2023-02-26T07:36:07;3.90;99.90
13808;DHT22;40769;51.512;5.494;2023-02-26T07:38:32;4.00;99.90
13808;DHT22;40769;51.512;5.494;2023-02-26T07:40:58;4.20;99.90
13808;DHT22;40769;51.512;5.494;2023-02-26T07:43:24;4.70;99.90
13808;DHT22;40769;51.512;5.494;2023-02-26T07:45:50;4.50;99.90
13808;DHT22;40769;51.512;5.494;2023-02-26T07:48:16;4.70;99.90
13808;DHT22;40769;51.512;5.494;2023-02-26T07:50:42;4.80;99.90
13808;DHT22;40769;51.512;5.494;2023-02-26T07:53:09;5.00;99.90
13808;DHT22;40769;51.512;5.494;2023-02-26T07:55:34;5.00;99.90
13808;DHT22;40769;51.512;5.494;2023-02-26T07:58:00;5.20;99.90
13808;DHT22;40769;51.512;5.494;2023-02-26T08:00:26;5.30;99.90
13808;DHT22;40769;51.512;5.494;2023-02-26T08:02:51;6.60;99.90
13808;DHT22;40769;51.512;5.494;2023-02-26T08:05:17;5.60;99.90
13808;DHT22;40769;51.512;5.494;2023-02-26T08:07:43;5.80;99.90
13808;DHT22;40769;51.512;5.494;2023-02-26T08:10:09;5.90;99.90
13808;DHT22;40769;51.512;5.494;2023-02-26T08:12:35;6.10;99.90
13808;DHT22;40769;51.512;5.494;2023-02-26T08:15:01;6.30;99.90
13808;DHT22;40769;51.512;5.494;2023-02-26T08:17:27;6.30;99.90
13808;DHT22;40769;51.512;5.494;2023-02-26T08:19:53;6.50;99.90
13808;DHT22;40769;51.512;5.494;2023-02-26T08:22:19;6.70;99.90
13808;DHT22;40769;51.512;5.494;2023-02-26T08:24:45;6.80;99.90
13808;DHT22;40769;51.512;5.494;2023-02-26T08:27:11;7.00;99.90
13808;DHT22;40769;51.512;5.494;2023-02-26T08:29:36;7.10;99.90
13808;DHT22;40769;51.512;5.494;2023-02-26T08:32:02;7.30;99.90
13808;DHT22;40769;51.512;5.494;2023-02-26T08:34:28;8.60;99.90
13808;DHT22;40769;51.512;5.494;2023-02-26T08:36:54;7.70;99.90
13808;DHT22;40769;51.512;5.494;2023-02-26T08:39:19;7.80;99.90
13808;DHT22;40769;51.512;5.494;2023-02-26T08:41:45;8.50;99.90
13808;DHT22;40769;51.512;5.494;2023-02-26T08:44:11;8.00;99.90
13808;DHT22;40769;51.512;5.494;2023-02-26T08:46:37;8.00;99.90
13808;DHT22;40769;51.512;5.494;2023-02-26T08:49:02;8.10;99.90
13808;DHT22;40769;51.512;5.494;2023-02-26T08:51:28;8.10;99.90
13808;DHT22;40769;51.512;5.494;2023-02-26T08:53:53;8.70;99.90
13808;DHT22;40769;51.512;5.494;2023-02-26T08:56:19;8.10;99.90
13808;DHT22;40769;51.512;5.494;2023-02-26T08:58:45;8.10;99.90
13808;DHT22;40769;51.512;5.494;2023-02-26T09:01:10;8.10;99.90
13808;DHT22;40769;51.512;5.494;2023-02-26T09:03:36;8.10;99.90
13808;DHT22;40769;51.512;5.494;2023-02-26T09:06:02;8.10;99.90
13808;DHT22;40769;51.512;5.494;2023-02-26T09:08:29;8.20;99.90
13808;DHT22;40769;51.512;5.494;2023-02-26T09:10:59;8.20;99.90
13808;DHT22;40769;51.512;5.494;2023-02-26T09:13:25;8.50;99.90
13808;DHT22;40769;51.512;5.494;2023-02-26T09:15:51;8.40;99.90
13808;DHT22;40769;51.512;5.494;2023-02-26T09:18:16;8.50;99.90
13808;DHT22;40769;51.512;5.494;2023-02-26T09:20:43;8.60;99.90
13808;DHT22;40769;51.512;5.494;2023-02-26T09:23:09;8.90;99.90
13808;DHT22;40769;51.512;5.494;2023-02-26T09:25:35;8.70;99.90
13808;DHT22;40769;51.512;5.494;2023-02-26T09:28:01;8.80;99.90
13808;DHT22;40769;51.512;5.494;2023-02-26T09:30:26;8.80;99.90
13808;DHT22;40769;51.512;5.494;2023-02-26T09:32:52;8.90;99.90
13808;DHT22;40769;51.512;5.494;2023-02-26T09:35:18;8.90;99.90
13808;DHT22;40769;51.512;5.494;2023-02-26T09:37:43;8.90;99.90
13808;DHT22;40769;51.512;5.494;2023-02-26T09:46:08;8.90;99.90
13808;DHT22;40769;51.512;5.494;2023-02-26T09:48:37;9.00;99.90
13808;DHT22;40769;51.512;5.494;2023-02-26T09:51:06;9.10;99.90
13808;DHT22;40769;51.512;5.494;2023-02-26T09:53:39;9.20;99.90
13808;DHT22;40769;51.512;5.494;2023-02-26T09:56:23;9.30;99.90
13808;DHT22;40769;51.512;5.494;2023-02-26T09:58:50;10.10;99.90
13808;DHT22;40769;51.512;5.494;2023-02-26T10:01:32;9.20;99.90
13808;DHT22;40769;51.512;5.494;2023-02-26T10:06:49;9.60;99.90
13808;DHT22;40769;51.512;5.494;2023-02-26T10:15:10;9.60;99.90
13808;DHT22;40769;51.512;5.494;2023-02-26T10:26:18;9.70;99.90
13808;DHT22;40769;51.512;5.494;2023-02-26T10:31:50;9.70;99.90
13808;DHT22;40769;51.512;5.494;2023-02-26T10:34:23;9.70;99.90
13808;DHT22;40769;51.512;5.494;2023-02-26T10:36:59;9.70;99.90
13808;DHT22;40769;51.512;5.494;2023-02-26T10:42:23;9.60;99.90
13808;DHT22;40769;51.512;5.494;2023-02-26T10:45:08;9.70;99.90
13808;DHT22;40769;51.512;5.494;2023-02-26T10:50:43;9.60;99.90
13808;DHT22;40769;51.512;5.494;2023-02-26T10:53:11;9.60;99.90
13808;DHT22;40769;51.512;5.494;2023-02-26T10:58:24;9.70;99.90
13808;DHT22;40769;51.512;5.494;2023-02-26T11:00:52;9.60;99.90
13808;DHT22;40769;51.512;5.494;2023-02-26T11:03:38;9.90;99.90
13808;DHT22;40769;51.512;5.494;2023-02-26T11:06:05;9.90;99.90
13808;DHT22;40769;51.512;5.494;2023-02-26T11:08:42;9.90;99.90
13808;DHT22;40769;51.512;5.494;2023-02-26T11:11:08;9.80;99.90
13808;DHT22;40769;51.512;5.494;2023-02-26T11:13:36;9.90;99.90
13808;DHT22;40769;51.512;5.494;2023-02-26T11:16:14;9.90;99.90
13808;DHT22;40769;51.512;5.494;2023-02-26T11:18:43;9.90;99.90
13808;DHT22;40769;51.512;5.494;2023-02-26T11:21:25;10.10;99.90
13808;DHT22;40769;51.512;5.494;2023-02-26T11:24:10;9.90;99.90
13808;DHT22;40769;51.512;5.494;2023-02-26T11:26:47;9.90;99.90
13808;DHT22;40769;51.512;5.494;2023-02-26T11:29:24;9.90;99.90
13808;DHT22;40769;51.512;5.494;2023-02-26T11:31:52;11.00;99.90
13808;DHT22;40769;51.512;5.494;2023-02-26T11:34:24;10.00;99.90
13808;DHT22;40769;51.512;5.494;2023-02-26T11:36:51;10.00;99.90
13808;DHT22;40769;51.512;5.494;2023-02-26T11:39:21;10.10;99.90
13808;DHT22;40769;51.512;5.494;2023-02-26T11:41:49;10.10;99.90
13808;DHT22;40769;51.512;5.494;2023-02-26T11:44:19;10.00;99.90
13808;DHT22;40769;51.512;5.494;2023-02-26T11:46:55;9.80;99.90
13808;DHT22;40769;51.512;5.494;2023-02-26T11:49:26;9.70;99.90
13808;DHT22;40769;51.512;5.494;2023-02-26T11:52:39;9.70;99.90
13808;DHT22;40769;51.512;5.494;2023-02-26T11:55:18;9.60;99.90
13808;DHT22;40769;51.512;5.494;2023-02-26T11:57:44;9.50;99.90
13808;DHT22;40769;51.512;5.494;2023-02-26T12:00:31;10.60;99.90
13808;DHT22;40769;51.512;5.494;2023-02-26T12:03:02;9.50;99.90
13808;DHT22;40769;51.512;5.494;2023-02-26T12:05:30;10.50;99.90
13808;DHT22;40769;51.512;5.494;2023-02-26T12:07:56;9.50;99.90
13808;DHT22;40769;51.512;5.494;2023-02-26T12:10:39;9.50;99.90
13808;DHT22;40769;51.512;5.494;2023-02-26T12:13:23;9.50;99.90
13808;DHT22;40769;51.512;5.494;2023-02-26T12:16:22;9.40;99.90
13808;DHT22;40769;51.512;5.494;2023-02-26T12:27:42;9.30;99.90
13808;DHT22;40769;51.512;5.494;2023-02-26T12:41:43;9.20;99.90
13808;DHT22;40769;51.512;5.494;2023-02-26T12:47:25;8.40;99.90
13808;DHT22;40769;51.512;5.494;2023-02-26T12:56:03;9.30;99.90
13808;DHT22;40769;51.512;5.494;2023-02-26T13:01:20;9.40;99.90
13808;DHT22;40769;51.512;5.494;2023-02-26T13:04:07;9.40;99.90
13808;DHT22;40769;51.512;5.494;2023-02-26T13:09:44;9.40;99.90
13808;DHT22;40769;51.512;5.494;2023-02-26T13:15:22;9.40;99.90
13808;DHT22;40769;51.512;5.494;2023-02-26T13:18:08;9.50;99.90
13808;DHT22;40769;51.512;5.494;2023-02-26T13:20:40;9.50;99.90
13808;DHT22;40769;51.512;5.494;2023-02-26T13:23:22;9.60;99.90
13808;DHT22;40769;51.512;5.494;2023-02-26T13:25:58;9.50;99.90
13808;DHT22;40769;51.512;5.494;2023-02-26T13:28:45;10.20;99.90
13808;DHT22;40769;51.512;5.494;2023-02-26T13:31:28;9.50;99.90
13808;DHT22;40769;51.512;5.494;2023-02-26T13:34:00;9.50;99.90
13808;DHT22;40769;51.512;5.494;2023-02-26T13:36:28;9.40;99.90
13808;DHT22;40769;51.512;5.494;2023-02-26T13:42:05;9.30;99.90
13808;DHT22;40769;51.512;5.494;2023-02-26T13:52:53;9.40;99.90
13808;DHT22;40769;51.512;5.494;2023-02-26T13:55:47;9.50;99.90
13808;DHT22;40769;51.512;5.494;2023-02-26T13:58:40;9.70;99.90
13808;DHT22;40769;51.512;5.494;2023-02-26T14:04:07;10.10;99.90
13808;DHT22;40769;51.512;5.494;2023-02-26T14:22:33;11.90;99.90
13808;DHT22;40769;51.512;5.494;2023-02-26T14:25:32;10.80;99.90
13808;DHT22;40769;51.512;5.494;2023-02-26T14:28:44;10.90;99.90
13808;DHT22;40769;51.512;5.494;2023-02-26T14:33:44;11.20;99.90
13808;DHT22;40769;51.512;5.494;2023-02-26T14:36:59;11.30;99.90
13808;DHT22;40769;51.512;5.494;2023-02-26T14:41:53;11.90;99.90
13808;DHT22;40769;51.512;5.494;2023-02-26T14:44:27;11.50;99.90
13808;DHT22;40769;51.512;5.494;2023-02-26T14:46:54;11.50;99.90
13808;DHT22;40769;51.512;5.494;2023-02-26T14:49:25;11.50;99.90
13808;DHT22;40769;51.512;5.494;2023-02-26T14:55:19;11.50;99.90
13808;DHT22;40769;51.512;5.494;2023-02-26T15:12:11;11.50;99.90
13808;DHT22;40769;51.512;5.494;2023-02-26T15:17:44;11.70;99.90
13808;DHT22;40769;51.512;5.494;2023-02-26T15:20:45;11.80;99.90
13808;DHT22;40769;51.512;5.494;2023-02-26T15:23:40;12.00;99.90
13808;DHT22;40769;51.512;5.494;2023-02-26T15:26:11;12.10;99.90
13808;DHT22;40769;51.512;5.494;2023-02-26T15:28:39;12.30;99.90
13808;DHT22;40769;51.512;5.494;2023-02-26T15:31:08;12.20;99.90
13808;DHT22;40769;51.512;5.494;2023-02-26T15:33:34;12.20;99.90
13808;DHT22;40769;51.512;5.494;2023-02-26T15:36:05;12.20;99.90
13808;DHT22;40769;51.512;5.494;2023-02-26T15:38:46;12.20;99.90
13808;DHT22;40769;51.512;5.494;2023-02-26T15:41:13;12.20;99.90
13808;DHT22;40769;51.512;5.494;2023-02-26T15:43:46;12.20;99.90
13808;DHT22;40769;51.512;5.494;2023-02-26T15:46:13;12.20;99.90
13808;DHT22;40769;51.512;5.494;2023-02-26T15:48:40;12.10;99.90
13808;DHT22;40769;51.512;5.494;2023-02-26T15:51:11;12.10;99.90
13808;DHT22;40769;51.512;5.494;2023-02-26T15:53:49;12.00;99.90
13808;DHT22;40769;51.512;5.494;2023-02-26T15:56:24;12.00;99.90
13808;DHT22;40769;51.512;5.494;2023-02-26T15:58:57;11.90;99.90
13808;DHT22;40769;51.512;5.494;2023-02-26T16:01:26;11.80;99.90
13808;DHT22;40769;51.512;5.494;2023-02-26T16:03:55;11.70;99.90
13808;DHT22;40769;51.512;5.494;2023-02-26T16:06:28;11.80;99.90
13808;DHT22;40769;51.512;5.494;2023-02-26T16:08:54;11.60;99.90
13808;DHT22;40769;51.512;5.494;2023-02-26T16:11:21;11.60;99.90
13808;DHT22;40769;51.512;5.494;2023-02-26T16:13:49;11.60;99.90
13808;DHT22;40769;51.512;5.494;2023-02-26T16:16:24;11.70;99.90
13808;DHT22;40769;51.512;5.494;2023-02-26T16:18:52;11.50;99.90
13808;DHT22;40769;51.512;5.494;2023-02-26T16:21:30;11.50;99.90
13808;DHT22;40769;51.512;5.494;2023-02-26T16:23:57;11.30;99.90
13808;DHT22;40769;51.512;5.494;2023-02-26T16:26:29;11.00;99.90
13808;DHT22;40769;51.512;5.494;2023-02-26T16:29:05;10.70;99.90
13808;DHT22;40769;51.512;5.494;2023-02-26T16:31:31;10.40;99.90
13808;DHT22;40769;51.512;5.494;2023-02-26T16:34:04;10.10;99.90
13808;DHT22;40769;51.512;5.494;2023-02-26T16:36:39;9.80;99.90
13808;DHT22;40769;51.512;5.494;2023-02-26T16:41:33;9.20;99.90
13808;DHT22;40769;51.512;5.494;2023-02-26T16:44:34;8.90;99.90
13808;DHT22;40769;51.512;5.494;2023-02-26T16:46:55;8.70;99.90
13808;DHT22;40769;51.512;5.494;2023-02-26T16:49:33;8.50;99.90
13808;DHT22;40769;51.512;5.494;2023-02-26T16:52:00;8.40;99.90
13808;DHT22;40769;51.512;5.494;2023-02-26T16:59:31;7.90;99.90
13808;DHT22;40769;51.512;5.494;2023-02-26T17:02:10;7.70;99.90
13808;DHT22;40769;51.512;5.494;2023-02-26T17:04:37;7.60;99.90
13808;DHT22;40769;51.512;5.494;2023-02-26T17:09:50;7.40;99.90
13808;DHT22;40769;51.512;5.494;2023-02-26T17:12:22;7.40;99.90
13808;DHT22;40769;51.512;5.494;2023-02-26T17:14:56;7.40;99.90
13808;DHT22;40769;51.512;5.494;2023-02-26T17:17:23;7.30;99.90
13808;DHT22;40769;51.512;5.494;2023-02-26T17:19:49;7.30;99.90
13808;DHT22;40769;51.512;5.494;2023-02-26T17:22:17;7.20;99.90
13808;DHT22;40769;51.512;5.494;2023-02-26T17:24:44;7.10;99.90
13808;DHT22;40769;51.512;5.494;2023-02-26T17:27:15;7.60;99.90
13808;DHT22;40769;51.512;5.494;2023-02-26T17:29:44;6.80;99.90
13808;DHT22;40769;51.512;5.494;2023-02-26T17:32:19;6.70;99.90
13808;DHT22;40769;51.512;5.494;2023-02-26T17:34:44;6.60;99.90
13808;DHT22;40769;51.512;5.494;2023-02-26T17:37:14;6.50;99.90
13808;DHT22;40769;51.512;5.494;2023-02-26T17:39:40;6.50;99.90
13808;DHT22;40769;51.512;5.494;2023-02-26T17:42:13;6.40;99.90
13808;DHT22;40769;51.512;5.494;2023-02-26T17:44:39;6.30;99.90
13808;DHT22;40769;51.512;5.494;2023-02-26T17:47:05;6.30;99.90
13808;DHT22;40769;51.512;5.494;2023-02-26T17:49:31;6.30;99.90
13808;DHT22;40769;51.512;5.494;2023-02-26T17:51:57;6.30;99.90
13808;DHT22;40769;51.512;5.494;2023-02-26T17:54:23;6.20;99.90
13808;DHT22;40769;51.512;5.494;2023-02-26T17:56:48;6.20;99.90
13808;DHT22;40769;51.512;5.494;2023-02-26T17:59:14;6.10;99.90
13808;DHT22;40769;51.512;5.494;2023-02-26T18:01:40;6.10;99.90
13808;DHT22;40769;51.512;5.494;2023-02-26T18:04:06;6.00;99.90
13808;DHT22;40769;51.512;5.494;2023-02-26T18:06:35;6.00;99.90
13808;DHT22;40769;51.512;5.494;2023-02-26T18:09:02;5.90;99.90
13808;DHT22;40769;51.512;5.494;2023-02-26T18:11:30;5.90;99.90
13808;DHT22;40769;51.512;5.494;2023-02-26T18:13:56;5.80;99.90
13808;DHT22;40769;51.512;5.494;2023-02-26T18:16:28;5.80;99.90
13808;DHT22;40769;51.512;5.494;2023-02-26T18:18:56;5.80;99.90
13808;DHT22;40769;51.512;5.494;2023-02-26T18:21:23;5.70;99.90
13808;DHT22;40769;51.512;5.494;2023-02-26T18:23:50;5.70;99.90
13808;DHT22;40769;51.512;5.494;2023-02-26T18:29:19;5.70;99.90
13808;DHT22;40769;51.512;5.494;2023-02-26T18:31:45;5.70;99.90
13808;DHT22;40769;51.512;5.494;2023-02-26T18:34:10;4.70;99.90
13808;DHT22;40769;51.512;5.494;2023-02-26T18:36:37;5.70;99.90
13808;DHT22;40769;51.512;5.494;2023-02-26T18:39:07;5.80;99.90
13808;DHT22;40769;51.512;5.494;2023-02-26T18:41:35;5.70;99.90
13808;DHT22;40769;51.512;5.494;2023-02-26T18:44:01;5.80;99.90
13808;DHT22;40769;51.512;5.494;2023-02-26T18:46:27;5.80;99.90
13808;DHT22;40769;51.512;5.494;2023-02-26T18:48:54;5.80;99.90
13808;DHT22;40769;51.512;5.494;2023-02-26T18:51:19;6.10;99.90
13808;DHT22;40769;51.512;5.494;2023-02-26T18:53:45;6.10;99.90
13808;DHT22;40769;51.512;5.494;2023-02-26T18:56:11;5.70;99.90
13808;DHT22;40769;51.512;5.494;2023-02-26T18:58:37;5.60;99.90
13808;DHT22;40769;51.512;5.494;2023-02-26T19:01:03;5.40;99.90
13808;DHT22;40769;51.512;5.494;2023-02-26T19:03:29;5.30;99.90
13808;DHT22;40769;51.512;5.494;2023-02-26T19:06:04;5.40;99.90
13808;DHT22;40769;51.512;5.494;2023-02-26T19:08:30;5.20;99.90
13808;DHT22;40769;51.512;5.494;2023-02-26T19:10:56;5.20;99.90
13808;DHT22;40769;51.512;5.494;2023-02-26T19:13:23;5.20;99.90